sensor_id;sensor_type;location;lat;lon;timestamp;P1;durP1;ratioP1;P2;durP2;ratioP2
52974;SDS011;38839;45.186;5.720;2022-10-16T00:00:43;3.35;;;1.67;;
52974;SDS011;38839;45.186;5.720;2022-10-16T00:03:09;3.05;;;1.98;;
52974;SDS011;38839;45.186;5.720;2022-10-16T00:05:39;2.53;;;1.60;;
52974;SDS011;38839;45.186;5.720;2022-10-16T00:08:07;7.75;;;1.50;;
52974;SDS011;38839;45.186;5.720;2022-10-16T00:10:34;2.10;;;1.45;;
52974;SDS011;38839;45.186;5.720;2022-10-16T00:13:00;3.63;;;1.65;;
52974;SDS011;38839;45.186;5.720;2022-10-16T00:15:25;2.72;;;1.45;;
52974;SDS011;38839;45.186;5.720;2022-10-16T00:17:50;5.45;;;1.48;;
52974;SDS011;38839;45.186;5.720;2022-10-16T00:20:16;2.22;;;1.60;;
52974;SDS011;38839;45.186;5.720;2022-10-16T00:22:41;2.13;;;1.30;;
52974;SDS011;38839;45.186;5.720;2022-10-16T00:25:07;3.60;;;1.38;;
52974;SDS011;38839;45.186;5.720;2022-10-16T00:27:33;3.33;;;1.60;;
52974;SDS011;38839;45.186;5.720;2022-10-16T00:29:58;2.03;;;1.40;;
52974;SDS011;38839;45.186;5.720;2022-10-16T00:32:24;2.80;;;1.50;;
52974;SDS011;38839;45.186;5.720;2022-10-16T00:34:49;2.10;;;1.60;;
52974;SDS011;38839;45.186;5.720;2022-10-16T00:37:15;2.80;;;1.60;;
52974;SDS011;38839;45.186;5.720;2022-10-16T00:39:40;3.05;;;1.63;;
52974;SDS011;38839;45.186;5.720;2022-10-16T00:42:05;2.55;;;2.15;;
52974;SDS011;38839;45.186;5.720;2022-10-16T00:47:19;3.20;;;1.83;;
52974;SDS011;38839;45.186;5.720;2022-10-16T00:49:46;3.97;;;1.65;;
52974;SDS011;38839;45.186;5.720;2022-10-16T00:52:14;2.55;;;1.85;;
52974;SDS011;38839;45.186;5.720;2022-10-16T00:54:40;2.38;;;1.70;;
52974;SDS011;38839;45.186;5.720;2022-10-16T00:57:06;6.10;;;1.80;;
52974;SDS011;38839;45.186;5.720;2022-10-16T00:59:33;1.85;;;1.48;;
52974;SDS011;38839;45.186;5.720;2022-10-16T01:02:03;2.33;;;1.40;;
52974;SDS011;38839;45.186;5.720;2022-10-16T01:04:40;5.28;;;1.67;;
52974;SDS011;38839;45.186;5.720;2022-10-16T01:12:54;4.10;;;1.30;;
52974;SDS011;38839;45.186;5.720;2022-10-16T01:21:02;4.03;;;1.42;;
52974;SDS011;38839;45.186;5.720;2022-10-16T01:31:49;1.90;;;1.40;;
52974;SDS011;38839;45.186;5.720;2022-10-16T01:34:23;2.03;;;1.42;;
52974;SDS011;38839;45.186;5.720;2022-10-16T01:37:05;2.28;;;1.30;;
52974;SDS011;38839;45.186;5.720;2022-10-16T01:39:37;2.95;;;1.60;;
52974;SDS011;38839;45.186;5.720;2022-10-16T01:42:16;2.40;;;1.48;;
52974;SDS011;38839;45.186;5.720;2022-10-16T01:44:47;1.60;;;1.40;;
52974;SDS011;38839;45.186;5.720;2022-10-16T01:47:14;3.50;;;1.48;;
52974;SDS011;38839;45.186;5.720;2022-10-16T01:49:42;5.68;;;1.80;;
52974;SDS011;38839;45.186;5.720;2022-10-16T01:52:11;3.50;;;1.60;;
52974;SDS011;38839;45.186;5.720;2022-10-16T01:54:42;4.22;;;1.60;;
52974;SDS011;38839;45.186;5.720;2022-10-16T01:59:40;3.85;;;2.20;;
52974;SDS011;38839;45.186;5.720;2022-10-16T02:02:11;2.05;;;1.80;;
52974;SDS011;38839;45.186;5.720;2022-10-16T02:04:44;3.03;;;2.13;;
52974;SDS011;38839;45.186;5.720;2022-10-16T02:07:14;3.08;;;1.77;;
52974;SDS011;38839;45.186;5.720;2022-10-16T02:09:39;4.72;;;2.63;;
52974;SDS011;38839;45.186;5.720;2022-10-16T02:12:13;4.18;;;2.00;;
52974;SDS011;38839;45.186;5.720;2022-10-16T02:15:00;3.40;;;2.20;;
52974;SDS011;38839;45.186;5.720;2022-10-16T02:17:26;2.70;;;2.00;;
52974;SDS011;38839;45.186;5.720;2022-10-16T02:19:52;4.03;;;2.30;;
52974;SDS011;38839;45.186;5.720;2022-10-16T02:22:27;3.92;;;2.17;;
52974;SDS011;38839;45.186;5.720;2022-10-16T02:30:24;3.63;;;1.70;;
52974;SDS011;38839;45.186;5.720;2022-10-16T02:32:55;2.92;;;1.80;;
52974;SDS011;38839;45.186;5.720;2022-10-16T02:35:23;3.03;;;1.83;;
52974;SDS011;38839;45.186;5.720;2022-10-16T02:37:50;3.53;;;2.05;;
52974;SDS011;38839;45.186;5.720;2022-10-16T02:40:17;4.78;;;2.00;;
52974;SDS011;38839;45.186;5.720;2022-10-16T02:42:43;4.78;;;1.83;;
52974;SDS011;38839;45.186;5.720;2022-10-16T02:45:09;2.17;;;1.92;;
52974;SDS011;38839;45.186;5.720;2022-10-16T02:47:36;4.65;;;1.90;;
52974;SDS011;38839;45.186;5.720;2022-10-16T02:50:02;3.97;;;2.20;;
52974;SDS011;38839;45.186;5.720;2022-10-16T02:52:28;3.38;;;1.73;;
52974;SDS011;38839;45.186;5.720;2022-10-16T02:54:53;4.28;;;2.13;;
52974;SDS011;38839;45.186;5.720;2022-10-16T02:57:18;1.52;;;1.27;;
52974;SDS011;38839;45.186;5.720;2022-10-16T02:59:44;4.70;;;1.88;;
52974;SDS011;38839;45.186;5.720;2022-10-16T03:02:10;3.80;;;1.50;;
52974;SDS011;38839;45.186;5.720;2022-10-16T03:04:35;1.80;;;1.40;;
52974;SDS011;38839;45.186;5.720;2022-10-16T03:07:01;5.88;;;1.63;;
52974;SDS011;38839;45.186;5.720;2022-10-16T03:09:27;4.15;;;1.50;;
52974;SDS011;38839;45.186;5.720;2022-10-16T03:11:52;4.85;;;1.77;;
52974;SDS011;38839;45.186;5.720;2022-10-16T03:14:18;1.67;;;1.40;;
52974;SDS011;38839;45.186;5.720;2022-10-16T03:16:43;3.65;;;1.73;;
52974;SDS011;38839;45.186;5.720;2022-10-16T03:19:08;2.10;;;1.60;;
52974;SDS011;38839;45.186;5.720;2022-10-16T03:21:34;2.00;;;1.48;;
52974;SDS011;38839;45.186;5.720;2022-10-16T03:23:59;2.35;;;1.42;;
52974;SDS011;38839;45.186;5.720;2022-10-16T03:26:24;4.55;;;1.50;;
52974;SDS011;38839;45.186;5.720;2022-10-16T03:28:50;4.65;;;1.58;;
52974;SDS011;38839;45.186;5.720;2022-10-16T03:31:15;3.08;;;1.90;;
52974;SDS011;38839;45.186;5.720;2022-10-16T03:33:41;4.97;;;1.50;;
52974;SDS011;38839;45.186;5.720;2022-10-16T03:36:06;2.85;;;1.75;;
52974;SDS011;38839;45.186;5.720;2022-10-16T03:38:32;5.45;;;1.98;;
52974;SDS011;38839;45.186;5.720;2022-10-16T03:40:57;3.80;;;1.85;;
52974;SDS011;38839;45.186;5.720;2022-10-16T03:43:23;2.45;;;1.65;;
52974;SDS011;38839;45.186;5.720;2022-10-16T03:45:50;2.90;;;1.90;;
52974;SDS011;38839;45.186;5.720;2022-10-16T03:48:16;3.13;;;1.65;;
52974;SDS011;38839;45.186;5.720;2022-10-16T03:50:42;5.07;;;2.08;;
52974;SDS011;38839;45.186;5.720;2022-10-16T03:53:07;4.22;;;2.03;;
52974;SDS011;38839;45.186;5.720;2022-10-16T03:55:33;4.35;;;1.70;;
52974;SDS011;38839;45.186;5.720;2022-10-16T03:57:59;5.47;;;2.25;;
52974;SDS011;38839;45.186;5.720;2022-10-16T04:00:25;2.92;;;1.80;;
52974;SDS011;38839;45.186;5.720;2022-10-16T04:02:50;5.18;;;2.15;;
52974;SDS011;38839;45.186;5.720;2022-10-16T04:05:16;4.18;;;2.25;;
52974;SDS011;38839;45.186;5.720;2022-10-16T04:07:41;4.15;;;1.80;;
52974;SDS011;38839;45.186;5.720;2022-10-16T04:10:07;3.10;;;1.60;;
52974;SDS011;38839;45.186;5.720;2022-10-16T04:12:33;6.97;;;1.98;;
52974;SDS011;38839;45.186;5.720;2022-10-16T04:14:58;2.42;;;1.70;;
52974;SDS011;38839;45.186;5.720;2022-10-16T04:17:23;4.53;;;1.60;;
52974;SDS011;38839;45.186;5.720;2022-10-16T04:19:49;3.38;;;2.10;;
52974;SDS011;38839;45.186;5.720;2022-10-16T04:22:14;2.33;;;1.80;;
52974;SDS011;38839;45.186;5.720;2022-10-16T04:24:40;3.95;;;1.75;;
52974;SDS011;38839;45.186;5.720;2022-10-16T04:27:05;3.45;;;1.55;;
52974;SDS011;38839;45.186;5.720;2022-10-16T04:29:31;2.63;;;1.70;;
52974;SDS011;38839;45.186;5.720;2022-10-16T04:31:56;2.88;;;1.38;;
52974;SDS011;38839;45.186;5.720;2022-10-16T04:34:21;5.13;;;1.48;;
52974;SDS011;38839;45.186;5.720;2022-10-16T04:36:47;3.28;;;1.52;;
52974;SDS011;38839;45.186;5.720;2022-10-16T04:39:14;1.50;;;1.40;;
52974;SDS011;38839;45.186;5.720;2022-10-16T04:41:39;2.83;;;1.83;;
52974;SDS011;38839;45.186;5.720;2022-10-16T04:44:05;2.30;;;1.67;;
52974;SDS011;38839;45.186;5.720;2022-10-16T04:46:30;4.20;;;1.77;;
52974;SDS011;38839;45.186;5.720;2022-10-16T04:48:55;5.55;;;1.92;;
52974;SDS011;38839;45.186;5.720;2022-10-16T04:51:21;3.08;;;1.77;;
52974;SDS011;38839;45.186;5.720;2022-10-16T04:53:46;4.50;;;1.90;;
52974;SDS011;38839;45.186;5.720;2022-10-16T04:56:12;2.60;;;1.83;;
52974;SDS011;38839;45.186;5.720;2022-10-16T04:58:37;5.13;;;1.63;;
52974;SDS011;38839;45.186;5.720;2022-10-16T05:01:03;3.63;;;1.80;;
52974;SDS011;38839;45.186;5.720;2022-10-16T05:03:28;3.92;;;1.88;;
52974;SDS011;38839;45.186;5.720;2022-10-16T05:05:54;3.90;;;1.70;;
52974;SDS011;38839;45.186;5.720;2022-10-16T05:08:19;2.50;;;1.98;;
52974;SDS011;38839;45.186;5.720;2022-10-16T05:10:45;4.47;;;2.42;;
52974;SDS011;38839;45.186;5.720;2022-10-16T05:13:10;6.43;;;3.53;;
52974;SDS011;38839;45.186;5.720;2022-10-16T05:15:36;2.97;;;2.70;;
52974;SDS011;38839;45.186;5.720;2022-10-16T05:18:02;5.57;;;3.70;;
52974;SDS011;38839;45.186;5.720;2022-10-16T05:20:27;6.10;;;4.03;;
52974;SDS011;38839;45.186;5.720;2022-10-16T05:22:52;6.68;;;4.88;;
52974;SDS011;38839;45.186;5.720;2022-10-16T05:25:18;4.25;;;3.90;;
52974;SDS011;38839;45.186;5.720;2022-10-16T05:27:46;4.55;;;4.00;;
52974;SDS011;38839;45.186;5.720;2022-10-16T05:30:13;4.75;;;2.30;;
52974;SDS011;38839;45.186;5.720;2022-10-16T05:32:38;3.20;;;2.30;;
52974;SDS011;38839;45.186;5.720;2022-10-16T05:35:03;3.00;;;2.35;;
52974;SDS011;38839;45.186;5.720;2022-10-16T05:37:29;5.28;;;2.10;;
52974;SDS011;38839;45.186;5.720;2022-10-16T05:39:54;3.50;;;1.92;;
52974;SDS011;38839;45.186;5.720;2022-10-16T05:42:20;2.03;;;1.60;;
52974;SDS011;38839;45.186;5.720;2022-10-16T05:44:45;2.25;;;1.60;;
52974;SDS011;38839;45.186;5.720;2022-10-16T05:47:12;3.72;;;1.70;;
52974;SDS011;38839;45.186;5.720;2022-10-16T05:49:37;5.13;;;2.10;;
52974;SDS011;38839;45.186;5.720;2022-10-16T05:52:03;2.35;;;1.55;;
52974;SDS011;38839;45.186;5.720;2022-10-16T05:54:29;2.65;;;1.50;;
52974;SDS011;38839;45.186;5.720;2022-10-16T05:56:54;4.93;;;1.83;;
52974;SDS011;38839;45.186;5.720;2022-10-16T05:59:20;5.57;;;1.60;;
52974;SDS011;38839;45.186;5.720;2022-10-16T06:01:45;4.57;;;1.30;;
52974;SDS011;38839;45.186;5.720;2022-10-16T06:04:10;2.50;;;1.48;;
52974;SDS011;38839;45.186;5.720;2022-10-16T06:06:36;4.82;;;1.17;;
52974;SDS011;38839;45.186;5.720;2022-10-16T06:09:01;2.03;;;1.17;;
52974;SDS011;38839;45.186;5.720;2022-10-16T06:11:28;3.08;;;1.27;;
52974;SDS011;38839;45.186;5.720;2022-10-16T06:13:56;1.95;;;1.30;;
52974;SDS011;38839;45.186;5.720;2022-10-16T06:16:24;1.90;;;1.40;;
52974;SDS011;38839;45.186;5.720;2022-10-16T06:18:51;1.48;;;1.38;;
52974;SDS011;38839;45.186;5.720;2022-10-16T06:21:19;2.33;;;1.50;;
52974;SDS011;38839;45.186;5.720;2022-10-16T06:23:47;2.20;;;1.30;;
52974;SDS011;38839;45.186;5.720;2022-10-16T06:26:14;4.93;;;1.60;;
52974;SDS011;38839;45.186;5.720;2022-10-16T06:28:41;1.48;;;1.10;;
52974;SDS011;38839;45.186;5.720;2022-10-16T06:31:08;2.08;;;1.35;;
52974;SDS011;38839;45.186;5.720;2022-10-16T06:33:34;3.00;;;1.45;;
52974;SDS011;38839;45.186;5.720;2022-10-16T06:36:05;2.08;;;1.20;;
52974;SDS011;38839;45.186;5.720;2022-10-16T06:38:33;2.38;;;1.52;;
52974;SDS011;38839;45.186;5.720;2022-10-16T06:40:58;1.40;;;1.30;;
52974;SDS011;38839;45.186;5.720;2022-10-16T06:43:24;3.30;;;1.42;;
52974;SDS011;38839;45.186;5.720;2022-10-16T06:45:51;5.32;;;1.27;;
52974;SDS011;38839;45.186;5.720;2022-10-16T06:48:20;4.43;;;1.60;;
52974;SDS011;38839;45.186;5.720;2022-10-16T06:50:59;12.35;;;2.00;;
52974;SDS011;38839;45.186;5.720;2022-10-16T06:53:25;1.88;;;1.63;;
52974;SDS011;38839;45.186;5.720;2022-10-16T06:55:52;1.88;;;1.42;;
52974;SDS011;38839;45.186;5.720;2022-10-16T06:58:18;2.45;;;1.50;;
52974;SDS011;38839;45.186;5.720;2022-10-16T07:00:43;2.83;;;1.45;;
52974;SDS011;38839;45.186;5.720;2022-10-16T07:03:09;2.17;;;1.35;;
52974;SDS011;38839;45.186;5.720;2022-10-16T07:05:40;3.22;;;1.20;;
52974;SDS011;38839;45.186;5.720;2022-10-16T07:08:07;2.40;;;1.48;;
52974;SDS011;38839;45.186;5.720;2022-10-16T07:10:33;1.70;;;1.60;;
52974;SDS011;38839;45.186;5.720;2022-10-16T07:12:59;2.58;;;1.50;;
52974;SDS011;38839;45.186;5.720;2022-10-16T07:15:25;2.58;;;1.48;;
52974;SDS011;38839;45.186;5.720;2022-10-16T07:17:51;1.50;;;1.40;;
52974;SDS011;38839;45.186;5.720;2022-10-16T07:20:17;3.03;;;1.40;;
52974;SDS011;38839;45.186;5.720;2022-10-16T07:22:43;2.95;;;1.58;;
52974;SDS011;38839;45.186;5.720;2022-10-16T07:25:08;3.70;;;1.73;;
52974;SDS011;38839;45.186;5.720;2022-10-16T07:27:34;2.22;;;1.50;;
52974;SDS011;38839;45.186;5.720;2022-10-16T07:29:59;2.15;;;1.55;;
52974;SDS011;38839;45.186;5.720;2022-10-16T07:32:25;2.95;;;1.65;;
52974;SDS011;38839;45.186;5.720;2022-10-16T07:34:51;4.20;;;1.77;;
52974;SDS011;38839;45.186;5.720;2022-10-16T07:37:17;3.13;;;1.75;;
52974;SDS011;38839;45.186;5.720;2022-10-16T07:39:43;5.32;;;2.10;;
52974;SDS011;38839;45.186;5.720;2022-10-16T07:42:08;2.22;;;1.67;;
52974;SDS011;38839;45.186;5.720;2022-10-16T07:44:34;4.03;;;1.67;;
52974;SDS011;38839;45.186;5.720;2022-10-16T07:46:59;2.33;;;1.80;;
52974;SDS011;38839;45.186;5.720;2022-10-16T07:49:24;8.73;;;2.05;;
52974;SDS011;38839;45.186;5.720;2022-10-16T07:51:50;3.88;;;1.85;;
52974;SDS011;38839;45.186;5.720;2022-10-16T07:54:16;2.85;;;1.52;;
52974;SDS011;38839;45.186;5.720;2022-10-16T07:56:41;5.30;;;1.50;;
52974;SDS011;38839;45.186;5.720;2022-10-16T07:59:06;2.15;;;1.33;;
52974;SDS011;38839;45.186;5.720;2022-10-16T08:01:32;2.85;;;0.93;;
52974;SDS011;38839;45.186;5.720;2022-10-16T08:03:57;2.25;;;0.90;;
52974;SDS011;38839;45.186;5.720;2022-10-16T08:06:23;1.65;;;0.85;;
52974;SDS011;38839;45.186;5.720;2022-10-16T08:08:48;2.08;;;1.02;;
52974;SDS011;38839;45.186;5.720;2022-10-16T08:11:14;1.95;;;1.20;;
52974;SDS011;38839;45.186;5.720;2022-10-16T08:13:40;1.58;;;1.20;;
52974;SDS011;38839;45.186;5.720;2022-10-16T08:16:06;4.75;;;0.90;;
52974;SDS011;38839;45.186;5.720;2022-10-16T08:18:37;5.18;;;0.98;;
52974;SDS011;38839;45.186;5.720;2022-10-16T08:21:04;2.80;;;0.80;;
52974;SDS011;38839;45.186;5.720;2022-10-16T08:23:30;1.25;;;1.08;;
52974;SDS011;38839;45.186;5.720;2022-10-16T08:26:01;0.90;;;0.80;;
52974;SDS011;38839;45.186;5.720;2022-10-16T08:28:29;2.00;;;1.10;;
52974;SDS011;38839;45.186;5.720;2022-10-16T08:30:55;2.28;;;1.02;;
52974;SDS011;38839;45.186;5.720;2022-10-16T08:33:21;3.55;;;1.20;;
52974;SDS011;38839;45.186;5.720;2022-10-16T08:35:53;5.45;;;1.10;;
52974;SDS011;38839;45.186;5.720;2022-10-16T08:38:19;1.48;;;1.13;;
52974;SDS011;38839;45.186;5.720;2022-10-16T08:40:45;1.63;;;1.00;;
52974;SDS011;38839;45.186;5.720;2022-10-16T08:46:12;1.65;;;0.98;;
52974;SDS011;38839;45.186;5.720;2022-10-16T08:48:50;0.85;;;0.85;;
52974;SDS011;38839;45.186;5.720;2022-10-16T08:51:24;2.22;;;0.60;;
52974;SDS011;38839;45.186;5.720;2022-10-16T08:56:42;2.65;;;0.70;;
52974;SDS011;38839;45.186;5.720;2022-10-16T08:59:09;1.13;;;0.90;;
52974;SDS011;38839;45.186;5.720;2022-10-16T09:01:46;2.38;;;0.60;;
52974;SDS011;38839;45.186;5.720;2022-10-16T09:17:38;2.90;;;0.80;;
52974;SDS011;38839;45.186;5.720;2022-10-16T09:25:49;2.83;;;1.20;;
52974;SDS011;38839;45.186;5.720;2022-10-16T09:28:16;5.13;;;1.08;;
52974;SDS011;38839;45.186;5.720;2022-10-16T09:30:42;4.65;;;1.02;;
52974;SDS011;38839;45.186;5.720;2022-10-16T09:33:09;3.33;;;1.00;;
52974;SDS011;38839;45.186;5.720;2022-10-16T09:35:43;2.67;;;1.00;;
52974;SDS011;38839;45.186;5.720;2022-10-16T09:38:30;1.30;;;0.77;;
52974;SDS011;38839;45.186;5.720;2022-10-16T09:41:02;1.40;;;1.08;;
52974;SDS011;38839;45.186;5.720;2022-10-16T09:46:24;2.63;;;1.13;;
52974;SDS011;38839;45.186;5.720;2022-10-16T09:49:01;1.20;;;1.02;;
52974;SDS011;38839;45.186;5.720;2022-10-16T09:51:33;3.72;;;1.08;;
52974;SDS011;38839;45.186;5.720;2022-10-16T09:54:02;2.80;;;1.10;;
52974;SDS011;38839;45.186;5.720;2022-10-16T09:56:28;2.08;;;1.20;;
52974;SDS011;38839;45.186;5.720;2022-10-16T09:59:15;3.25;;;1.05;;
52974;SDS011;38839;45.186;5.720;2022-10-16T10:01:49;1.13;;;0.90;;
52974;SDS011;38839;45.186;5.720;2022-10-16T10:04:16;1.52;;;1.00;;
52974;SDS011;38839;45.186;5.720;2022-10-16T10:06:43;5.07;;;1.02;;
52974;SDS011;38839;45.186;5.720;2022-10-16T10:09:16;2.47;;;1.50;;
52974;SDS011;38839;45.186;5.720;2022-10-16T10:14:51;2.53;;;1.20;;
52974;SDS011;38839;45.186;5.720;2022-10-16T10:19:36;2.70;;;1.00;;
52974;SDS011;38839;45.186;5.720;2022-10-16T10:22:17;1.30;;;0.90;;
52974;SDS011;38839;45.186;5.720;2022-10-16T10:24:43;2.20;;;1.17;;
52974;SDS011;38839;45.186;5.720;2022-10-16T10:27:11;2.80;;;1.27;;
52974;SDS011;38839;45.186;5.720;2022-10-16T10:32:23;1.98;;;1.20;;
52974;SDS011;38839;45.186;5.720;2022-10-16T10:35:12;2.50;;;1.20;;
52974;SDS011;38839;45.186;5.720;2022-10-16T10:40:50;3.35;;;1.40;;
52974;SDS011;38839;45.186;5.720;2022-10-16T10:45:48;2.20;;;1.10;;
52974;SDS011;38839;45.186;5.720;2022-10-16T10:56:58;5.57;;;1.80;;
52974;SDS011;38839;45.186;5.720;2022-10-16T11:02:44;2.78;;;1.23;;
52974;SDS011;38839;45.186;5.720;2022-10-16T11:05:27;1.88;;;1.00;;
52974;SDS011;38839;45.186;5.720;2022-10-16T11:10:52;2.28;;;1.70;;
52974;SDS011;38839;45.186;5.720;2022-10-16T11:16:17;3.03;;;1.50;;
52974;SDS011;38839;45.186;5.720;2022-10-16T11:21:29;4.18;;;1.25;;
52974;SDS011;38839;45.186;5.720;2022-10-16T11:24:23;3.50;;;1.02;;
52974;SDS011;38839;45.186;5.720;2022-10-16T11:26:56;1.48;;;1.10;;
52974;SDS011;38839;45.186;5.720;2022-10-16T11:29:29;6.53;;;1.17;;
52974;SDS011;38839;45.186;5.720;2022-10-16T11:31:57;2.75;;;1.35;;
52974;SDS011;38839;45.186;5.720;2022-10-16T11:34:40;5.35;;;1.25;;
52974;SDS011;38839;45.186;5.720;2022-10-16T11:37:14;1.45;;;1.00;;
52974;SDS011;38839;45.186;5.720;2022-10-16T11:39:44;3.45;;;1.10;;
52974;SDS011;38839;45.186;5.720;2022-10-16T11:42:13;4.18;;;1.20;;
52974;SDS011;38839;45.186;5.720;2022-10-16T11:44:51;2.05;;;1.15;;
52974;SDS011;38839;45.186;5.720;2022-10-16T11:47:27;2.85;;;1.40;;
52974;SDS011;38839;45.186;5.720;2022-10-16T11:50:06;2.85;;;1.55;;
52974;SDS011;38839;45.186;5.720;2022-10-16T11:53:01;2.10;;;1.20;;
52974;SDS011;38839;45.186;5.720;2022-10-16T11:55:41;1.42;;;1.30;;
52974;SDS011;38839;45.186;5.720;2022-10-16T11:58:29;2.97;;;1.60;;
52974;SDS011;38839;45.186;5.720;2022-10-16T12:03:35;2.60;;;1.17;;
52974;SDS011;38839;45.186;5.720;2022-10-16T12:08:45;0.88;;;0.60;;
52974;SDS011;38839;45.186;5.720;2022-10-16T12:19:17;2.63;;;0.80;;
52974;SDS011;38839;45.186;5.720;2022-10-16T12:21:44;2.78;;;0.95;;
52974;SDS011;38839;45.186;5.720;2022-10-16T12:29:56;2.15;;;0.80;;
52974;SDS011;38839;45.186;5.720;2022-10-16T12:34:59;3.60;;;0.70;;
52974;SDS011;38839;45.186;5.720;2022-10-16T12:37:34;2.33;;;0.80;;
52974;SDS011;38839;45.186;5.720;2022-10-16T12:40:14;0.65;;;0.60;;
52974;SDS011;38839;45.186;5.720;2022-10-16T12:42:54;2.55;;;1.02;;
52974;SDS011;38839;45.186;5.720;2022-10-16T12:47:54;1.80;;;0.90;;
52974;SDS011;38839;45.186;5.720;2022-10-16T12:50:28;0.82;;;0.50;;
52974;SDS011;38839;45.186;5.720;2022-10-16T12:52:55;1.42;;;0.77;;
52974;SDS011;38839;45.186;5.720;2022-10-16T12:55:21;1.70;;;0.65;;
52974;SDS011;38839;45.186;5.720;2022-10-16T13:03:17;2.28;;;0.80;;
52974;SDS011;38839;45.186;5.720;2022-10-16T13:11:27;2.00;;;0.70;;
52974;SDS011;38839;45.186;5.720;2022-10-16T13:14:58;3.08;;;0.90;;
52974;SDS011;38839;45.186;5.720;2022-10-16T13:19:34;2.10;;;0.73;;
52974;SDS011;38839;45.186;5.720;2022-10-16T13:22:29;4.03;;;0.80;;
52974;SDS011;38839;45.186;5.720;2022-10-16T13:28:16;0.93;;;0.73;;
52974;SDS011;38839;45.186;5.720;2022-10-16T13:30:53;0.85;;;0.77;;
52974;SDS011;38839;45.186;5.720;2022-10-16T13:36:04;0.70;;;0.70;;
52974;SDS011;38839;45.186;5.720;2022-10-16T13:38:32;1.95;;;0.60;;
52974;SDS011;38839;45.186;5.720;2022-10-16T13:43:39;0.85;;;0.70;;
52974;SDS011;38839;45.186;5.720;2022-10-16T13:46:15;0.90;;;0.63;;
52974;SDS011;38839;45.186;5.720;2022-10-16T13:48:42;1.33;;;0.52;;
52974;SDS011;38839;45.186;5.720;2022-10-16T13:51:14;0.73;;;0.52;;
52974;SDS011;38839;45.186;5.720;2022-10-16T13:53:41;2.80;;;0.60;;
52974;SDS011;38839;45.186;5.720;2022-10-16T13:56:10;1.83;;;0.60;;
52974;SDS011;38839;45.186;5.720;2022-10-16T13:58:37;0.85;;;0.60;;
52974;SDS011;38839;45.186;5.720;2022-10-16T14:01:03;5.03;;;0.90;;
52974;SDS011;38839;45.186;5.720;2022-10-16T14:03:30;1.33;;;0.70;;
52974;SDS011;38839;45.186;5.720;2022-10-16T14:06:00;1.13;;;0.70;;
52974;SDS011;38839;45.186;5.720;2022-10-16T14:08:28;1.10;;;0.65;;
52974;SDS011;38839;45.186;5.720;2022-10-16T14:11:04;1.02;;;0.60;;
52974;SDS011;38839;45.186;5.720;2022-10-16T14:13:34;1.38;;;0.80;;
52974;SDS011;38839;45.186;5.720;2022-10-16T14:16:15;0.50;;;0.50;;
52974;SDS011;38839;45.186;5.720;2022-10-16T14:18:44;1.15;;;0.60;;
52974;SDS011;38839;45.186;5.720;2022-10-16T14:21:14;0.80;;;0.50;;
52974;SDS011;38839;45.186;5.720;2022-10-16T14:23:41;1.50;;;0.73;;
52974;SDS011;38839;45.186;5.720;2022-10-16T14:28:33;2.17;;;0.57;;
52974;SDS011;38839;45.186;5.720;2022-10-16T14:30:59;1.33;;;0.57;;
52974;SDS011;38839;45.186;5.720;2022-10-16T14:35:59;0.88;;;0.60;;
52974;SDS011;38839;45.186;5.720;2022-10-16T14:38:27;0.70;;;0.70;;
52974;SDS011;38839;45.186;5.720;2022-10-16T14:40:54;1.38;;;0.70;;
52974;SDS011;38839;45.186;5.720;2022-10-16T14:43:26;2.33;;;0.77;;
52974;SDS011;38839;45.186;5.720;2022-10-16T14:45:57;0.82;;;0.77;;
52974;SDS011;38839;45.186;5.720;2022-10-16T14:48:23;1.23;;;0.77;;
52974;SDS011;38839;45.186;5.720;2022-10-16T14:50:49;1.52;;;0.60;;
52974;SDS011;38839;45.186;5.720;2022-10-16T14:53:15;0.60;;;0.60;;
52974;SDS011;38839;45.186;5.720;2022-10-16T14:55:41;0.80;;;0.70;;
52974;SDS011;38839;45.186;5.720;2022-10-16T14:58:28;2.65;;;0.77;;
52974;SDS011;38839;45.186;5.720;2022-10-16T15:00:53;2.50;;;0.50;;
52974;SDS011;38839;45.186;5.720;2022-10-16T15:03:21;1.27;;;0.60;;
52974;SDS011;38839;45.186;5.720;2022-10-16T15:05:46;1.48;;;0.70;;
52974;SDS011;38839;45.186;5.720;2022-10-16T15:08:11;1.23;;;0.80;;
52974;SDS011;38839;45.186;5.720;2022-10-16T15:10:39;0.93;;;0.63;;
52974;SDS011;38839;45.186;5.720;2022-10-16T15:13:06;1.00;;;0.70;;
52974;SDS011;38839;45.186;5.720;2022-10-16T15:15:46;2.60;;;0.85;;
52974;SDS011;38839;45.186;5.720;2022-10-16T15:18:14;0.75;;;0.63;;
52974;SDS011;38839;45.186;5.720;2022-10-16T15:20:44;0.60;;;0.60;;
52974;SDS011;38839;45.186;5.720;2022-10-16T15:23:17;2.45;;;0.70;;
52974;SDS011;38839;45.186;5.720;2022-10-16T15:28:12;0.70;;;0.70;;
52974;SDS011;38839;45.186;5.720;2022-10-16T15:30:38;4.80;;;0.88;;
52974;SDS011;38839;45.186;5.720;2022-10-16T15:33:05;1.17;;;1.00;;
52974;SDS011;38839;45.186;5.720;2022-10-16T15:35:35;2.03;;;1.15;;
52974;SDS011;38839;45.186;5.720;2022-10-16T15:38:01;1.67;;;0.75;;
52974;SDS011;38839;45.186;5.720;2022-10-16T15:40:26;1.33;;;0.70;;
52974;SDS011;38839;45.186;5.720;2022-10-16T15:42:51;0.70;;;0.70;;
52974;SDS011;38839;45.186;5.720;2022-10-16T15:45:17;1.05;;;0.80;;
52974;SDS011;38839;45.186;5.720;2022-10-16T15:47:44;3.13;;;1.00;;
52974;SDS011;38839;45.186;5.720;2022-10-16T15:50:10;0.77;;;0.77;;
52974;SDS011;38839;45.186;5.720;2022-10-16T15:52:37;6.25;;;0.90;;
52974;SDS011;38839;45.186;5.720;2022-10-16T15:55:04;1.52;;;1.10;;
52974;SDS011;38839;45.186;5.720;2022-10-16T15:57:36;1.27;;;0.60;;
52974;SDS011;38839;45.186;5.720;2022-10-16T16:00:04;1.70;;;0.80;;
52974;SDS011;38839;45.186;5.720;2022-10-16T16:02:32;0.70;;;0.70;;
52974;SDS011;38839;45.186;5.720;2022-10-16T16:04:57;2.78;;;0.88;;
52974;SDS011;38839;45.186;5.720;2022-10-16T16:07:23;2.10;;;1.00;;
52974;SDS011;38839;45.186;5.720;2022-10-16T16:09:49;4.00;;;0.70;;
52974;SDS011;38839;45.186;5.720;2022-10-16T16:12:14;2.60;;;1.10;;
52974;SDS011;38839;45.186;5.720;2022-10-16T16:14:40;2.20;;;1.10;;
52974;SDS011;38839;45.186;5.720;2022-10-16T16:17:05;2.15;;;0.70;;
52974;SDS011;38839;45.186;5.720;2022-10-16T16:19:31;1.35;;;0.90;;
52974;SDS011;38839;45.186;5.720;2022-10-16T16:21:57;2.47;;;0.68;;
52974;SDS011;38839;45.186;5.720;2022-10-16T16:24:23;1.50;;;0.80;;
52974;SDS011;38839;45.186;5.720;2022-10-16T16:26:48;1.80;;;0.70;;
52974;SDS011;38839;45.186;5.720;2022-10-16T16:29:14;2.95;;;0.80;;
52974;SDS011;38839;45.186;5.720;2022-10-16T16:31:41;1.60;;;0.70;;
52974;SDS011;38839;45.186;5.720;2022-10-16T16:34:07;2.80;;;0.85;;
52974;SDS011;38839;45.186;5.720;2022-10-16T16:36:33;3.75;;;1.00;;
52974;SDS011;38839;45.186;5.720;2022-10-16T16:38:59;2.55;;;0.98;;
52974;SDS011;38839;45.186;5.720;2022-10-16T16:41:25;3.20;;;0.98;;
52974;SDS011;38839;45.186;5.720;2022-10-16T16:43:53;2.17;;;0.90;;
52974;SDS011;38839;45.186;5.720;2022-10-16T16:46:19;3.17;;;0.95;;
52974;SDS011;38839;45.186;5.720;2022-10-16T16:48:46;1.23;;;0.82;;
52974;SDS011;38839;45.186;5.720;2022-10-16T16:51:13;3.50;;;0.80;;
52974;SDS011;38839;45.186;5.720;2022-10-16T16:56:10;2.38;;;1.13;;
52974;SDS011;38839;45.186;5.720;2022-10-16T16:58:36;4.05;;;1.00;;
52974;SDS011;38839;45.186;5.720;2022-10-16T17:01:03;2.75;;;1.00;;
52974;SDS011;38839;45.186;5.720;2022-10-16T17:03:29;1.02;;;0.70;;
52974;SDS011;38839;45.186;5.720;2022-10-16T17:06:06;1.50;;;0.98;;
52974;SDS011;38839;45.186;5.720;2022-10-16T17:08:36;5.20;;;0.98;;
52974;SDS011;38839;45.186;5.720;2022-10-16T17:11:02;1.58;;;0.90;;
52974;SDS011;38839;45.186;5.720;2022-10-16T17:13:31;1.52;;;1.00;;
52974;SDS011;38839;45.186;5.720;2022-10-16T17:15:59;3.40;;;1.38;;
52974;SDS011;38839;45.186;5.720;2022-10-16T17:18:25;0.80;;;0.80;;
52974;SDS011;38839;45.186;5.720;2022-10-16T17:20:51;2.13;;;0.70;;
52974;SDS011;38839;45.186;5.720;2022-10-16T17:23:17;1.65;;;0.95;;